Time;durP1;ratioP1;P1;durP2;ratioP2;P2;SDS_P1;SDS_P2;PMS_P1;PMS_P2;Temp;Humidity;BMP_temperature;BMP_pressure;BME280_temperature;BME280_humidity;BME280_pressure;Samples;Min_cycle;Max_cycle;Signal;HPM_P1;HPM_P2
2020/12/27 00:02:17;;;;;;;2.25;0.30;;;2.90;99.90;;;;;;5029487;28;20086;-47
2020/12/27 00:04:43;;;;;;;0.30;0.10;;;2.80;99.90;;;;;;5026560;28;20049;-47
2020/12/27 00:07:11;;;;;;;0.68;0.20;;;2.80;99.90;;;;;;5029382;28;20084;-47
2020/12/27 00:09:39;;;;;;;0.60;0.20;;;2.80;99.90;;;;;;5026632;28;20049;-47
2020/12/27 00:12:07;;;;;;;4.53;0.30;;;2.80;99.90;;;;;;5016093;28;20398;-48
2020/12/27 00:14:34;;;;;;;1.02;0.17;;;2.70;99.90;;;;;;5028823;28;20053;-47
2020/12/27 00:17:09;;;;;;;0.40;0.20;;;2.70;99.90;;;;;;5027830;28;20638;-47
2020/12/27 00:19:37;;;;;;;0.63;0.30;;;2.70;99.90;;;;;;5032139;28;20068;-47
2020/12/27 00:22:04;;;;;;;1.98;0.20;;;2.70;99.90;;;;;;5030270;28;20049;-48
2020/12/27 00:24:31;;;;;;;1.13;0.28;;;2.60;99.90;;;;;;5018484;28;20054;-48
2020/12/27 00:26:58;;;;;;;0.95;0.20;;;2.60;99.90;;;;;;5026462;28;20046;-47
2020/12/27 00:29:24;;;;;;;0.30;0.20;;;2.70;99.90;;;;;;5028630;28;20076;-47
2020/12/27 00:31:52;;;;;;;5.80;0.30;;;2.80;99.90;;;;;;5029661;28;20061;-48
2020/12/27 00:34:19;;;;;;;0.20;0.10;;;2.70;99.90;;;;;;5028839;28;20056;-47
2020/12/27 00:36:47;;;;;;;0.30;0.20;;;2.70;99.90;;;;;;5016716;28;20058;-47
2020/12/27 00:39:21;;;;;;;0.40;0.20;;;2.70;99.90;;;;;;5025805;28;20054;-48
2020/12/27 00:41:48;;;;;;;1.08;0.20;;;2.60;99.90;;;;;;5029835;28;20048;-47
2020/12/27 00:44:16;;;;;;;0.30;0.15;;;2.70;99.90;;;;;;5029812;28;20092;-48
2020/12/27 00:46:52;;;;;;;0.73;0.20;;;2.70;99.90;;;;;;5020693;28;20057;-47
2020/12/27 00:49:20;;;;;;;1.65;0.22;;;2.70;99.90;;;;;;5023371;28;20107;-47
2020/12/27 00:51:47;;;;;;;0.38;0.20;;;2.80;99.90;;;;;;5027403;28;20049;-47
2020/12/27 00:54:14;;;;;;;2.88;0.20;;;2.80;99.90;;;;;;5033508;28;20045;-47
2020/12/27 00:56:40;;;;;;;1.38;0.20;;;2.70;99.90;;;;;;5027096;28;20094;-47
2020/12/27 00:59:07;;;;;;;2.10;0.20;;;2.70;99.90;;;;;;5020133;28;20049;-47
2020/12/27 01:01:33;;;;;;;1.38;0.20;;;2.70;99.90;;;;;;5022895;28;20050;-47
2020/12/27 01:04:00;;;;;;;0.25;0.20;;;2.70;99.90;;;;;;5022721;28;20399;-47
2020/12/27 01:06:28;;;;;;;0.20;0.20;;;2.70;99.90;;;;;;5029971;28;20046;-47
2020/12/27 01:08:55;;;;;;;0.68;0.20;;;2.70;99.90;;;;;;5031990;28;20390;-47
2020/12/27 01:11:22;;;;;;;2.08;0.10;;;2.70;99.90;;;;;;5026705;28;20490;-47
2020/12/27 01:13:49;;;;;;;0.75;0.20;;;2.70;99.90;;;;;;5030991;28;20606;-47
2020/12/27 01:16:21;;;;;;;0.65;0.50;;;2.70;99.90;;;;;;5017319;28;20064;-48
2020/12/27 01:18:48;;;;;;;0.30;0.20;;;2.60;99.90;;;;;;5033482;28;20394;-48
2020/12/27 01:21:26;;;;;;;0.40;0.20;;;2.60;99.90;;;;;;5039657;28;20168;-47
2020/12/27 01:23:53;;;;;;;0.40;0.30;;;2.60;99.90;;;;;;5022652;28;20038;-48
2020/12/27 01:26:32;;;;;;;0.20;0.20;;;2.50;99.90;;;;;;5027415;28;20361;-47
2020/12/27 01:28:59;;;;;;;0.20;0.20;;;2.60;99.90;;;;;;5032249;28;20056;-48
2020/12/27 01:31:26;;;;;;;0.40;0.20;;;2.60;99.90;;;;;;5032450;28;20710;-47
2020/12/27 01:33:53;;;;;;;1.08;0.20;;;2.50;99.90;;;;;;5032107;28;20053;-48
2020/12/27 01:36:31;;;;;;;1.85;0.13;;;2.60;99.90;;;;;;5031690;28;20046;-47
2020/12/27 01:38:59;;;;;;;0.90;0.25;;;2.60;99.90;;;;;;5031173;28;20517;-48
2020/12/27 01:41:26;;;;;;;0.35;0.20;;;2.60;99.90;;;;;;5031611;28;20057;-47
2020/12/27 01:44:04;;;;;;;0.35;0.20;;;2.60;99.90;;;;;;5030261;28;20494;-48
2020/12/27 01:46:33;;;;;;;0.30;0.20;;;2.60;99.90;;;;;;5032482;28;20445;-48
2020/12/27 01:49:02;;;;;;;0.52;0.20;;;2.50;99.90;;;;;;5032759;28;20053;-47
2020/12/27 01:51:30;;;;;;;1.17;0.20;;;2.60;99.90;;;;;;5030682;28;20049;-47
2020/12/27 01:53:57;;;;;;;2.60;0.20;;;2.60;99.90;;;;;;5032776;28;20057;-47
2020/12/27 01:56:36;;;;;;;0.63;0.20;;;2.60;99.90;;;;;;5029799;28;20529;-47
2020/12/27 01:59:05;;;;;;;1.50;0.20;;;2.50;99.90;;;;;;5023379;28;20050;-48
2020/12/27 02:01:34;;;;;;;1.05;0.20;;;2.60;99.90;;;;;;5028071;28;20487;-47
2020/12/27 02:04:02;;;;;;;0.65;0.20;;;2.60;99.90;;;;;;5025412;28;20045;-47
2020/12/27 02:06:30;;;;;;;0.60;0.20;;;2.60;99.90;;;;;;5032580;28;20045;-48
2020/12/27 02:08:57;;;;;;;1.95;0.20;;;2.60;99.90;;;;;;5030171;28;20049;-47
2020/12/27 02:11:25;;;;;;;1.85;0.20;;;2.60;99.90;;;;;;5017240;28;20054;-47
2020/12/27 02:13:59;;;;;;;0.43;0.15;;;2.60;99.90;;;;;;5027433;28;20057;-48
2020/12/27 02:16:28;;;;;;;0.20;0.10;;;2.60;99.90;;;;;;5030896;28;20049;-47
2020/12/27 02:18:56;;;;;;;0.22;0.17;;;2.60;99.90;;;;;;5030398;28;20046;-47
2020/12/27 02:21:23;;;;;;;1.38;0.20;;;2.60;99.90;;;;;;5029848;28;20490;-47
2020/12/27 02:24:00;;;;;;;0.82;0.20;;;2.60;99.90;;;;;;5029066;28;20455;-47
2020/12/27 02:26:27;;;;;;;0.82;0.13;;;2.60;99.90;;;;;;5024789;28;20042;-47
2020/12/27 02:28:55;;;;;;;0.60;0.15;;;2.60;99.90;;;;;;5015992;28;20053;-47
2020/12/27 02:31:30;;;;;;;1.15;0.20;;;2.70;99.90;;;;;;5025929;28;20045;-47
2020/12/27 02:33:57;;;;;;;0.20;0.10;;;2.60;99.90;;;;;;5029908;28;20053;-48
2020/12/27 02:36:24;;;;;;;2.80;0.10;;;2.60;99.90;;;;;;5030819;28;20049;-47
2020/12/27 02:38:50;;;;;;;0.82;0.20;;;2.70;99.90;;;;;;5030007;28;20053;-47
2020/12/27 02:41:19;;;;;;;0.28;0.13;;;2.70;99.90;;;;;;5028634;28;20049;-47
2020/12/27 02:43:46;;;;;;;0.90;0.20;;;2.60;99.90;;;;;;5029911;28;20092;-47
2020/12/27 02:46:26;;;;;;;2.05;0.17;;;2.60;99.90;;;;;;5016086;28;20052;-47
2020/12/27 02:48:53;;;;;;;0.13;0.10;;;2.70;99.90;;;;;;5031102;28;20093;-48
2020/12/27 02:51:20;;;;;;;2.08;0.15;;;2.70;99.90;;;;;;5028025;28;20430;-47
2020/12/27 02:53:48;;;;;;;0.85;0.20;;;2.70;99.90;;;;;;5022117;28;20474;-47
2020/12/27 02:56:20;;;;;;;1.33;0.20;;;2.70;99.90;;;;;;5028192;28;20406;-47
2020/12/27 02:58:47;;;;;;;0.15;0.10;;;2.70;99.90;;;;;;5031266;28;20049;-47
2020/12/27 03:01:14;;;;;;;0.25;0.10;;;2.60;99.90;;;;;;5029232;28;20045;-47
2020/12/27 03:03:41;;;;;;;0.40;0.20;;;2.60;99.90;;;;;;5023574;28;20486;-47
2020/12/27 03:06:24;;;;;;;0.75;0.20;;;2.60;99.90;;;;;;5022260;28;20054;-47
2020/12/27 03:08:54;;;;;;;2.13;0.28;;;2.50;99.90;;;;;;5019203;28;20049;-47
2020/12/27 03:11:25;;;;;;;1.10;0.20;;;2.60;99.90;;;;;;5031413;28;20057;-47
2020/12/27 03:13:53;;;;;;;2.58;0.20;;;2.60;99.90;;;;;;5028826;28;20084;-47
2020/12/27 03:16:20;;;;;;;0.10;0.10;;;2.60;99.90;;;;;;5026799;28;20501;-47
2020/12/27 03:18:47;;;;;;;0.22;0.20;;;2.50;99.90;;;;;;5028939;28;20497;-47
2020/12/27 03:21:16;;;;;;;1.13;0.20;;;2.60;99.90;;;;;;5041909;28;20056;-47
2020/12/27 03:23:43;;;;;;;0.20;0.17;;;2.50;99.90;;;;;;5032018;28;20446;-48
2020/12/27 03:26:09;;;;;;;0.35;0.20;;;2.50;99.90;;;;;;5031407;28;20042;-47
2020/12/27 03:28:36;;;;;;;1.95;0.20;;;2.50;99.90;;;;;;5019352;28;20065;-48
2020/12/27 03:31:02;;;;;;;0.22;0.17;;;2.50;99.90;;;;;;5028264;28;20414;-48
2020/12/27 03:33:29;;;;;;;5.00;0.20;;;2.50;99.90;;;;;;5013156;28;20053;-47
2020/12/27 03:35:55;;;;;;;0.40;0.10;;;2.50;99.90;;;;;;5027336;28;20471;-46
2020/12/27 03:38:23;;;;;;;1.17;0.20;;;2.50;99.90;;;;;;5020197;28;20061;-48
2020/12/27 03:40:49;;;;;;;4.22;0.20;;;2.50;99.90;;;;;;5025298;28;20065;-47
2020/12/27 03:43:16;;;;;;;1.73;0.10;;;2.50;99.90;;;;;;5019815;28;20380;-47
2020/12/27 03:45:42;;;;;;;0.30;0.20;;;2.40;99.90;;;;;;5018963;28;20085;-47
2020/12/27 03:48:09;;;;;;;1.85;0.20;;;2.40;99.90;;;;;;5028369;28;20045;-48
2020/12/27 03:50:36;;;;;;;0.20;0.10;;;2.40;99.90;;;;;;5025667;28;20061;-47
2020/12/27 03:53:02;;;;;;;1.52;0.20;;;2.40;99.90;;;;;;5028676;28;20060;-47
2020/12/27 03:55:29;;;;;;;0.43;0.20;;;2.40;99.90;;;;;;5029042;28;20053;-49
2020/12/27 03:57:55;;;;;;;0.30;0.20;;;2.40;99.90;;;;;;5023600;28;20072;-47
2020/12/27 04:00:23;;;;;;;0.10;0.10;;;2.40;99.90;;;;;;5023500;28;20046;-47
2020/12/27 04:02:50;;;;;;;0.17;0.10;;;2.40;99.90;;;;;;5030147;28;20471;-47
2020/12/27 04:05:16;;;;;;;0.30;0.20;;;2.40;99.90;;;;;;5022976;28;20041;-48
2020/12/27 04:07:43;;;;;;;0.32;0.13;;;2.40;99.90;;;;;;5014401;28;20046;-48
2020/12/27 04:10:16;;;;;;;0.20;0.10;;;2.30;99.90;;;;;;5026673;28;20069;-47
2020/12/27 04:12:42;;;;;;;0.10;0.10;;;2.30;99.90;;;;;;5030963;28;20045;-47
2020/12/27 04:15:09;;;;;;;0.20;0.10;;;2.30;99.90;;;;;;5022110;28;20042;-47
2020/12/27 04:17:36;;;;;;;0.17;0.17;;;2.30;99.90;;;;;;5027163;28;20049;-48
2020/12/27 04:20:03;;;;;;;0.20;0.10;;;2.30;99.90;;;;;;5028601;28;20160;-47
2020/12/27 04:22:30;;;;;;;1.23;0.10;;;2.20;99.90;;;;;;5027443;28;20510;-47
2020/12/27 04:24:56;;;;;;;0.95;0.20;;;2.10;99.90;;;;;;5014187;28;20057;-47
2020/12/27 04:27:23;;;;;;;0.22;0.17;;;2.10;99.90;;;;;;5024771;28;20041;-47
2020/12/27 04:29:49;;;;;;;1.65;0.10;;;2.20;99.90;;;;;;5028720;28;20070;-47
2020/12/27 04:32:16;;;;;;;2.22;0.10;;;2.20;99.90;;;;;;5028714;28;20057;-48
2020/12/27 04:34:42;;;;;;;0.20;0.20;;;2.20;99.90;;;;;;5029602;28;20047;-47
2020/12/27 04:37:23;;;;;;;0.80;0.10;;;2.20;99.90;;;;;;5015720;28;20065;-48
2020/12/27 04:39:51;;;;;;;0.15;0.10;;;2.20;99.90;;;;;;5024215;28;20528;-49
2020/12/27 04:42:17;;;;;;;4.15;0.20;;;2.20;99.90;;;;;;5029423;28;20049;-48
2020/12/27 04:44:44;;;;;;;0.20;0.10;;;2.20;99.90;;;;;;5030927;28;20053;-48
2020/12/27 04:47:13;;;;;;;0.82;0.10;;;2.20;99.90;;;;;;5031013;28;20542;-47
2020/12/27 04:49:39;;;;;;;0.90;0.20;;;2.20;99.90;;;;;;5029735;28;20086;-47
2020/12/27 04:52:09;;;;;;;0.30;0.10;;;2.20;99.90;;;;;;5036819;28;20057;-47
2020/12/27 04:54:37;;;;;;;0.30;0.20;;;2.10;99.90;;;;;;5020856;28;20483;-47
2020/12/27 04:57:03;;;;;;;0.60;0.10;;;2.10;99.90;;;;;;5028907;28;20045;-47
2020/12/27 04:59:30;;;;;;;0.63;0.10;;;2.10;99.90;;;;;;5039496;28;20041;-48
2020/12/27 05:01:57;;;;;;;0.32;0.20;;;2.00;99.90;;;;;;5031965;28;20144;-47
2020/12/27 05:04:25;;;;;;;0.13;0.13;;;2.10;99.90;;;;;;5029527;28;20057;-47
2020/12/27 05:06:56;;;;;;;0.20;0.10;;;2.10;99.90;;;;;;5030187;28;20052;-48
2020/12/27 05:09:28;;;;;;;0.75;0.40;;;2.00;99.90;;;;;;5031861;28;20057;-47
2020/12/27 05:11:55;;;;;;;1.92;0.10;;;2.00;99.90;;;;;;5044736;28;20057;-47
2020/12/27 05:14:28;;;;;;;0.43;0.17;;;2.00;99.90;;;;;;5034428;28;20064;-47
2020/12/27 05:16:59;;;;;;;4.65;0.20;;;1.90;99.90;;;;;;5027872;28;20053;-48
2020/12/27 05:19:26;;;;;;;0.45;0.20;;;1.80;99.90;;;;;;5033985;28;20069;-47
2020/12/27 05:22:06;;;;;;;1.65;0.20;;;1.90;99.90;;;;;;5028224;28;20092;-48
2020/12/27 05:24:34;;;;;;;1.38;0.20;;;1.90;99.90;;;;;;5033918;28;20050;-48
2020/12/27 05:27:03;;;;;;;0.43;0.20;;;1.90;99.90;;;;;;5031980;28;20048;-47
2020/12/27 05:29:32;;;;;;;0.43;0.20;;;1.90;99.90;;;;;;5033554;28;20064;-48
2020/12/27 05:31:59;;;;;;;2.78;0.20;;;1.90;99.90;;;;;;5030018;28;20053;-47
2020/12/27 05:34:30;;;;;;;0.40;0.20;;;1.80;99.90;;;;;;5018368;28;20061;-48
2020/12/27 05:36:58;;;;;;;2.67;0.20;;;1.80;99.90;;;;;;5023238;28;20072;-47
2020/12/27 05:39:27;;;;;;;2.17;0.20;;;1.80;99.90;;;;;;5021767;28;20049;-47
2020/12/27 05:42:02;;;;;;;0.55;0.15;;;1.80;99.90;;;;;;5023098;28;20050;-47
2020/12/27 05:44:29;;;;;;;0.52;0.20;;;1.70;99.90;;;;;;5033696;28;20053;-47
2020/12/27 05:46:57;;;;;;;0.30;0.20;;;1.60;99.90;;;;;;5027849;28;20103;-47
2020/12/27 05:49:25;;;;;;;1.95;0.20;;;1.60;99.90;;;;;;5027548;28;20054;-48
2020/12/27 05:51:57;;;;;;;4.47;0.20;;;1.50;99.90;;;;;;5025925;28;20494;-47
2020/12/27 05:54:34;;;;;;;1.27;0.20;;;1.60;99.90;;;;;;5031961;28;20478;-47
2020/12/27 05:57:02;;;;;;;1.75;0.20;;;1.60;99.90;;;;;;5025168;28;20041;-48
2020/12/27 05:59:32;;;;;;;0.30;0.20;;;1.60;99.90;;;;;;5032454;28;20053;-48
2020/12/27 06:02:00;;;;;;;0.73;0.20;;;1.70;99.90;;;;;;5029620;28;20061;-49
2020/12/27 06:04:45;;;;;;;2.55;0.20;;;1.70;99.90;;;;;;5031213;28;20509;-47
2020/12/27 06:07:31;;;;;;;2.15;0.30;;;1.70;99.90;;;;;;5022970;28;20046;-47
2020/12/27 06:10:01;;;;;;;1.65;0.30;;;1.70;99.90;;;;;;5024797;28;20060;-47
2020/12/27 06:12:57;;;;;;;2.63;0.22;;;1.60;99.90;;;;;;5032292;28;20049;-47
2020/12/27 06:15:30;;;;;;;2.25;0.20;;;1.60;99.90;;;;;;4996796;28;20053;-47
2020/12/27 06:18:08;;;;;;;0.35;0.20;;;1.60;99.90;;;;;;5030161;28;20446;-49
2020/12/27 06:20:37;;;;;;;0.55;0.30;;;1.60;99.90;;;;;;5023296;28;20061;-47
2020/12/27 06:23:04;;;;;;;0.60;0.20;;;1.60;99.90;;;;;;5035354;28;20077;-48
2020/12/27 06:25:32;;;;;;;0.30;0.20;;;1.50;99.90;;;;;;5031151;28;20528;-47
2020/12/27 06:28:00;;;;;;;0.70;0.30;;;1.60;99.90;;;;;;5030609;28;20060;-47
2020/12/27 06:30:40;;;;;;;0.60;0.40;;;1.50;99.90;;;;;;5028807;28;20049;-48
2020/12/27 06:33:12;;;;;;;2.70;0.50;;;1.50;99.90;;;;;;5021558;28;20050;-48
2020/12/27 06:35:38;;;;;;;2.10;0.30;;;1.40;99.90;;;;;;5023688;28;20045;-47
2020/12/27 06:38:24;;;;;;;1.02;0.28;;;1.40;99.90;;;;;;5015822;28;20065;-47
2020/12/27 06:40:58;;;;;;;1.50;0.30;;;1.40;99.90;;;;;;5027218;28;20050;-47
2020/12/27 06:43:24;;;;;;;;;;;1.40;99.90;;;;;;5028214;28;20068;-47
2020/12/27 06:45:52;;;;;;;1.55;0.25;;;1.40;99.90;;;;;;5031609;28;19928;-47
2020/12/27 06:48:37;;;;;;;0.73;0.20;;;1.30;99.90;;;;;;5030221;28;20498;-48
2020/12/27 06:51:04;;;;;;;0.35;0.20;;;1.30;99.90;;;;;;5029559;28;20050;-49
2020/12/27 06:53:44;;;;;;;1.00;0.20;;;1.30;99.90;;;;;;5029535;28;20864;-48
2020/12/27 06:56:15;;;;;;;0.30;0.13;;;1.20;99.90;;;;;;5020313;28;20482;-47
2020/12/27 06:59:00;;;;;;;0.30;0.20;;;1.20;99.90;;;;;;5026885;28;20406;-47
2020/12/27 07:01:27;;;;;;;0.20;0.10;;;1.10;99.90;;;;;;5029471;28;20041;-47
2020/12/27 07:04:11;;;;;;;0.20;0.10;;;1.20;99.90;;;;;;5031185;28;20045;-47
2020/12/27 07:06:45;;;;;;;0.90;0.10;;;1.20;99.90;;;;;;5026869;28;20485;-47
2020/12/27 07:09:38;;;;;;;0.90;0.10;;;1.20;99.90;;;;;;5030817;28;20406;-47
2020/12/27 07:12:11;;;;;;;0.30;0.10;;;1.20;99.90;;;;;;5027863;28;20047;-47
2020/12/27 07:14:42;;;;;;;1.45;0.20;;;1.20;99.90;;;;;;5029254;28;20057;-48
2020/12/27 07:17:10;;;;;;;0.52;0.20;;;1.20;99.90;;;;;;5031190;28;20485;-48
2020/12/27 07:19:38;;;;;;;0.50;0.40;;;1.20;99.90;;;;;;5029096;28;20375;-47
2020/12/27 07:22:13;;;;;;;0.57;0.30;;;1.10;99.90;;;;;;5031988;28;20057;-47
2020/12/27 07:24:41;;;;;;;1.30;0.90;;;1.00;99.90;;;;;;5021764;28;20479;-47
2020/12/27 07:27:10;;;;;;;0.73;0.50;;;0.90;99.90;;;;;;5021395;28;20050;-47
2020/12/27 07:29:37;;;;;;;3.38;1.42;;;0.80;99.90;;;;;;5021456;28;20049;-47
2020/12/27 07:32:04;;;;;;;1.00;0.57;;;0.80;99.90;;;;;;5029560;28;20052;-47
2020/12/27 07:34:32;;;;;;;0.73;0.40;;;0.80;99.90;;;;;;5029689;28;20061;-47
2020/12/27 07:37:06;;;;;;;0.98;0.40;;;0.80;99.90;;;;;;5028746;28;20054;-47
2020/12/27 07:39:49;;;;;;;;;;;0.70;99.90;;;;;;5029366;28;20045;-48
2020/12/27 07:42:35;;;;;;;2.28;0.70;;;0.70;99.90;;;;;;5030816;28;19928;-47
2020/12/27 07:45:13;;;;;;;13.43;7.95;;;0.60;99.90;;;;;;5027547;28;20897;-47
2020/12/27 07:47:41;;;;;;;4.90;3.25;;;0.60;99.90;;;;;;5021718;28;20061;-47
2020/12/27 07:50:18;;;;;;;2.00;0.40;;;0.70;99.90;;;;;;5030847;28;20057;-47
2020/12/27 07:52:44;;;;;;;0.45;0.40;;;0.80;99.90;;;;;;5036299;28;20046;-47
2020/12/27 07:55:11;;;;;;;0.85;0.85;;;0.80;99.90;;;;;;5031944;28;20072;-47
2020/12/27 07:57:43;;;;;;;0.30;0.30;;;0.70;99.90;;;;;;5033148;28;20060;-47
2020/12/27 08:00:10;;;;;;;0.60;0.30;;;0.80;99.90;;;;;;5030123;28;20195;-48
2020/12/27 08:02:36;;;;;;;1.55;0.60;;;0.90;99.90;;;;;;5026750;28;20498;-47
2020/12/27 08:05:03;;;;;;;0.70;0.50;;;0.80;99.90;;;;;;5015314;28;20057;-47
2020/12/27 08:07:29;;;;;;;4.57;1.40;;;0.90;99.90;;;;;;5028526;28;20057;-47
2020/12/27 08:09:56;;;;;;;1.85;0.60;;;0.90;99.90;;;;;;5029677;28;20057;-47
2020/12/27 08:12:22;;;;;;;4.18;1.80;;;1.00;99.90;;;;;;5038981;28;20076;-47
2020/12/27 08:14:50;;;;;;;1.15;0.40;;;0.90;99.90;;;;;;5034940;28;20053;-47
2020/12/27 08:17:16;;;;;;;1.00;0.10;;;0.90;99.90;;;;;;5014342;28;20049;-47
2020/12/27 08:19:43;;;;;;;1.13;0.22;;;1.10;99.90;;;;;;5034466;28;20585;-47
2020/12/27 08:22:10;;;;;;;0.22;0.20;;;1.20;99.90;;;;;;5030536;28;20092;-47
2020/12/27 08:24:36;;;;;;;0.40;0.20;;;1.30;99.90;;;;;;5026487;28;20046;-47
2020/12/27 08:27:07;;;;;;;0.40;0.28;;;1.40;99.90;;;;;;5023053;28;20041;-48
2020/12/27 08:29:33;;;;;;;1.23;0.20;;;1.50;99.90;;;;;;5033027;28;20398;-47
2020/12/27 08:32:06;;;;;;;1.55;0.30;;;1.70;99.90;;;;;;5030619;28;20057;-48
2020/12/27 08:34:33;;;;;;;25.58;8.15;;;1.80;99.90;;;;;;5019377;28;20060;-48
2020/12/27 08:37:00;;;;;;;22.90;8.27;;;1.70;99.90;;;;;;5030195;28;20056;-47
2020/12/27 08:39:37;;;;;;;8.98;2.45;;;1.70;99.90;;;;;;5020748;28;20099;-47
2020/12/27 08:42:10;;;;;;;6.07;2.10;;;1.70;99.90;;;;;;5034721;28;20040;-49
2020/12/27 08:44:45;;;;;;;2.15;0.50;;;1.60;99.90;;;;;;5038459;28;20045;-47
2020/12/27 08:47:25;;;;;;;2.17;0.60;;;1.70;99.90;;;;;;5030562;28;20064;-48
2020/12/27 08:50:03;;;;;;;0.70;0.50;;;1.90;99.90;;;;;;5030412;28;20056;-47
2020/12/27 08:52:29;;;;;;;0.30;0.20;;;2.00;99.90;;;;;;5020355;28;20479;-49
2020/12/27 08:55:05;;;;;;;1.92;0.20;;;2.00;99.90;;;;;;5024075;28;20061;-48
2020/12/27 08:57:31;;;;;;;0.20;0.20;;;2.20;99.90;;;;;;5024971;28;21076;-51
2020/12/27 09:00:10;;;;;;;0.30;0.20;;;2.30;99.90;;;;;;5031207;28;20046;-48
2020/12/27 09:02:38;;;;;;;0.32;0.10;;;2.40;99.90;;;;;;5028814;28;20053;-51
2020/12/27 09:05:12;;;;;;;0.20;0.10;;;2.50;99.90;;;;;;5031865;28;20411;-48
2020/12/27 09:07:44;;;;;;;0.55;0.20;;;2.60;99.90;;;;;;5024892;28;20059;-50
2020/12/27 09:10:26;;;;;;;0.22;0.10;;;2.60;99.90;;;;;;5022867;28;20060;-49
2020/12/27 09:13:03;;;;;;;3.40;0.17;;;2.70;99.90;;;;;;5031925;28;20057;-49
2020/12/27 09:15:33;;;;;;;0.50;0.10;;;2.60;99.90;;;;;;5030326;28;20046;-48
2020/12/27 09:18:02;;;;;;;0.63;0.20;;;2.80;99.90;;;;;;5031525;28;20061;-49
2020/12/27 09:20:30;;;;;;;0.20;0.10;;;2.80;99.90;;;;;;5031683;28;20065;-49
2020/12/27 09:22:58;;;;;;;3.10;0.20;;;2.80;99.90;;;;;;5033542;28;20038;-48
2020/12/27 09:25:26;;;;;;;0.65;0.20;;;2.90;99.90;;;;;;5022598;28;20046;-48
2020/12/27 09:27:54;;;;;;;0.32;0.10;;;2.90;99.90;;;;;;5031950;28;20064;-49
2020/12/27 09:30:26;;;;;;;1.63;0.10;;;3.00;99.90;;;;;;5038661;28;20048;-50
2020/12/27 09:32:59;;;;;;;0.35;0.10;;;3.20;99.90;;;;;;5029855;28;20376;-48
2020/12/27 09:35:27;;;;;;;0.45;0.20;;;3.30;99.90;;;;;;5031424;28;20064;-48
2020/12/27 09:37:54;;;;;;;1.27;0.20;;;3.30;99.90;;;;;;5022675;28;20546;-50
2020/12/27 09:40:34;;;;;;;0.10;0.10;;;3.40;99.90;;;;;;5022984;28;20168;-51
2020/12/27 09:43:04;;;;;;;2.25;0.20;;;3.30;99.90;;;;;;5016174;28;20049;-49
2020/12/27 09:45:32;;;;;;;3.85;0.20;;;3.40;99.90;;;;;;5028703;28;20406;-50
2020/12/27 09:48:00;;;;;;;0.93;0.20;;;3.70;99.90;;;;;;5032515;28;20041;-51
2020/12/27 09:50:30;;;;;;;0.70;0.20;;;3.70;99.90;;;;;;5031034;28;20061;-50
2020/12/27 09:52:58;;;;;;;1.20;0.20;;;3.70;99.90;;;;;;5030395;28;20056;-48
2020/12/27 09:55:25;;;;;;;0.93;0.20;;;3.50;99.90;;;;;;5019112;28;20060;-49
2020/12/27 09:57:52;;;;;;;0.43;0.10;;;3.60;99.90;;;;;;5024797;28;20057;-47
2020/12/27 10:00:18;;;;;;;0.25;0.20;;;3.60;99.90;;;;;;5032422;28;20398;-47
2020/12/27 10:02:45;;;;;;;9.65;1.55;;;3.70;99.90;;;;;;5028885;28;20045;-47
2020/12/27 10:05:12;;;;;;;1.10;0.20;;;3.60;99.90;;;;;;5025566;28;20130;-49
2020/12/27 10:07:40;;;;;;;0.95;0.20;;;3.40;99.90;;;;;;5032004;28;20045;-48
2020/12/27 10:10:09;;;;;;;2.90;0.15;;;3.60;99.90;;;;;;5028128;28;20057;-47
2020/12/27 10:12:35;;;;;;;0.32;0.10;;;3.70;99.90;;;;;;5032348;28;20057;-47
2020/12/27 10:15:05;;;;;;;0.32;0.20;;;3.90;99.90;;;;;;5028402;28;20049;-48
2020/12/27 10:17:32;;;;;;;1.77;0.20;;;4.00;99.90;;;;;;5031373;28;20053;-48
2020/12/27 10:19:59;;;;;;;0.85;0.20;;;4.00;99.90;;;;;;5028805;28;20045;-47
2020/12/27 10:22:26;;;;;;;2.60;0.10;;;4.10;99.90;;;;;;5030735;28;20045;-47
2020/12/27 10:24:53;;;;;;;0.30;0.20;;;4.00;99.90;;;;;;5025415;28;20045;-47
2020/12/27 10:27:20;;;;;;;1.33;0.20;;;4.10;99.90;;;;;;5019213;28;20053;-47
2020/12/27 10:29:47;;;;;;;0.70;0.20;;;4.00;99.90;;;;;;5024695;28;20062;-47
2020/12/27 10:32:14;;;;;;;2.50;0.47;;;4.00;99.90;;;;;;5023665;28;20041;-47
2020/12/27 10:34:41;;;;;;;0.38;0.20;;;4.30;99.90;;;;;;5031760;28;20053;-47
2020/12/27 10:37:07;;;;;;;0.52;0.13;;;4.60;99.90;;;;;;5028021;28;20100;-47
2020/12/27 10:39:34;;;;;;;1.00;0.13;;;4.80;99.90;;;;;;5026376;28;20037;-48
2020/12/27 10:42:01;;;;;;;0.30;0.30;;;4.80;99.90;;;;;;5027915;28;20410;-47
2020/12/27 10:44:28;;;;;;;0.20;0.10;;;5.10;99.90;;;;;;5023158;28;20045;-47
2020/12/27 10:46:54;;;;;;;0.30;0.17;;;5.40;99.90;;;;;;5026769;28;20049;-48
2020/12/27 10:49:22;;;;;;;0.30;0.17;;;5.50;99.90;;;;;;5027412;28;20057;-47
2020/12/27 10:51:49;;;;;;;0.47;0.10;;;5.40;99.90;;;;;;5029033;28;20052;-48
2020/12/27 10:54:16;;;;;;;0.90;0.10;;;5.50;99.90;;;;;;5012952;28;20103;-47
2020/12/27 10:56:44;;;;;;;0.35;0.20;;;5.50;99.90;;;;;;5021437;28;20053;-48
2020/12/27 10:59:13;;;;;;;0.90;0.20;;;5.70;99.90;;;;;;5028767;28;20095;-48
2020/12/27 11:01:48;;;;;;;0.80;0.20;;;5.80;99.90;;;;;;5028633;28;20045;-47
2020/12/27 11:04:15;;;;;;;1.52;0.20;;;5.80;99.90;;;;;;5029369;28;20049;-47
2020/12/27 11:06:41;;;;;;;2.22;0.20;;;5.90;99.90;;;;;;5026709;28;20041;-48
2020/12/27 11:09:08;;;;;;;1.50;0.20;;;5.80;99.90;;;;;;5027516;28;20050;-47
2020/12/27 11:11:36;;;;;;;1.38;0.52;;;5.70;99.90;;;;;;5026698;28;20064;-48
2020/12/27 11:14:04;;;;;;;0.75;0.20;;;5.70;99.90;;;;;;5029731;28;20061;-48
2020/12/27 11:16:31;;;;;;;2.50;0.38;;;5.60;99.90;;;;;;5029273;28;20068;-47
2020/12/27 11:18:59;;;;;;;1.65;0.28;;;5.80;99.90;;;;;;5020831;28;20103;-47
2020/12/27 11:21:26;;;;;;;2.65;1.38;;;6.10;99.90;;;;;;5029147;28;20072;-48
2020/12/27 11:23:53;;;;;;;0.65;0.40;;;6.30;99.90;;;;;;5026769;28;20048;-49
2020/12/27 11:26:19;;;;;;;2.45;0.70;;;6.40;99.90;;;;;;5030431;28;20041;-47
2020/12/27 11:28:47;;;;;;;0.40;0.20;;;6.20;99.90;;;;;;5025630;28;20398;-48
2020/12/27 11:31:15;;;;;;;1.92;0.30;;;6.40;99.90;;;;;;5030521;28;20053;-47
2020/12/27 11:33:43;;;;;;;1.40;0.60;;;6.70;99.90;;;;;;5026268;28;20049;-48
2020/12/27 11:36:10;;;;;;;1.17;0.93;;;6.70;99.90;;;;;;5026797;28;20046;-48
2020/12/27 11:38:37;;;;;;;0.88;0.40;;;7.20;99.90;;;;;;5029180;28;20049;-47
2020/12/27 11:41:04;;;;;;;3.88;0.60;;;6.60;98.60;;;;;;5028102;28;20053;-48
2020/12/27 11:43:30;;;;;;;2.78;0.80;;;6.50;99.90;;;;;;5021101;28;20049;-49
2020/12/27 11:45:58;;;;;;;1.15;0.43;;;6.60;99.90;;;;;;5023218;28;20041;-48
2020/12/27 11:48:26;;;;;;;0.68;0.68;;;6.50;99.90;;;;;;5013870;28;20141;-49
2020/12/27 11:50:53;;;;;;;0.75;0.40;;;7.00;99.90;;;;;;5026564;28;20053;-48
2020/12/27 11:53:20;;;;;;;2.13;0.55;;;7.10;99.90;;;;;;5029125;28;20049;-48
2020/12/27 11:55:47;;;;;;;0.30;0.20;;;6.80;98.70;;;;;;5026902;28;20072;-48
2020/12/27 11:58:14;;;;;;;1.35;0.20;;;6.40;95.70;;;;;;5028977;28;20136;-49
2020/12/27 12:00:41;;;;;;;0.30;0.20;;;6.10;97.80;;;;;;5029447;28;20076;-48
2020/12/27 12:03:08;;;;;;;0.50;0.30;;;6.30;99.90;;;;;;5028580;28;20095;-48
2020/12/27 12:05:34;;;;;;;0.47;0.30;;;6.80;99.90;;;;;;5023810;28;20050;-48
2020/12/27 12:08:01;;;;;;;0.25;0.10;;;6.80;99.90;;;;;;5027145;28;20497;-47
2020/12/27 12:10:27;;;;;;;1.80;0.30;;;7.00;98.30;;;;;;5012661;28;20050;-48
2020/12/27 12:12:54;;;;;;;0.73;0.35;;;6.80;98.10;;;;;;5029448;28;20053;-48
2020/12/27 12:15:20;;;;;;;3.20;0.28;;;6.50;98.70;;;;;;5028445;28;20763;-48
2020/12/27 12:17:47;;;;;;;1.80;0.30;;;6.20;98.30;;;;;;5029917;28;20479;-48
2020/12/27 12:22:59;;;;;;;0.30;0.22;;;6.10;98.20;;;;;;5029690;28;20478;-49
2020/12/27 12:25:26;;;;;;;0.40;0.10;;;6.80;99.90;;;;;;5024860;28;20050;-47
2020/12/27 12:27:52;;;;;;;0.20;0.10;;;6.50;96.60;;;;;;5016371;28;20046;-48
2020/12/27 12:30:18;;;;;;;2.08;0.20;;;6.90;99.90;;;;;;5029913;28;20046;-47
2020/12/27 12:32:45;;;;;;;0.68;0.10;;;6.70;97.50;;;;;;5019035;28;20045;-48
2020/12/27 12:35:11;;;;;;;0.38;0.28;;;7.00;99.40;;;;;;5029086;28;20052;-48
2020/12/27 12:37:38;;;;;;;0.50;0.20;;;7.30;97.30;;;;;;5028134;28;20050;-48
2020/12/27 12:40:06;;;;;;;0.55;0.40;;;6.70;96.00;;;;;;5030220;28;20047;-48
2020/12/27 12:42:38;;;;;;;0.65;0.30;;;6.80;96.00;;;;;;5026714;28;20042;-48
2020/12/27 12:45:07;;;;;;;11.70;4.77;;;7.10;95.10;;;;;;5018626;28;20103;-47
2020/12/27 12:47:34;;;;;;;0.57;0.35;;;7.10;95.40;;;;;;5020166;28;20050;-48
2020/12/27 12:50:02;;;;;;;0.70;0.20;;;7.30;97.00;;;;;;5019027;28;20072;-48
2020/12/27 12:52:28;;;;;;;0.40;0.20;;;7.00;92.90;;;;;;5017025;28;20069;-48
2020/12/27 12:54:54;;;;;;;1.05;0.30;;;7.20;94.20;;;;;;5023505;28;20053;-49
2020/12/27 12:57:21;;;;;;;0.70;0.40;;;7.60;95.50;;;;;;5012380;28;20050;-48
2020/12/27 12:59:47;;;;;;;2.00;0.30;;;7.50;94.60;;;;;;5024069;28;20044;-49
2020/12/27 13:02:18;;;;;;;0.93;0.30;;;7.50;93.20;;;;;;5012926;28;20052;-48
2020/12/27 13:04:45;;;;;;;0.95;0.50;;;7.50;95.20;;;;;;5033153;28;20053;-50
2020/12/27 13:07:11;;;;;;;0.43;0.32;;;7.80;94.60;;;;;;5031472;28;20048;-48
2020/12/27 13:09:38;;;;;;;1.05;0.40;;;8.00;92.80;;;;;;5028474;28;20107;-48
2020/12/27 13:12:05;;;;;;;0.50;0.40;;;7.90;93.80;;;;;;5030631;28;20060;-49